createdAt,value
2022-11-29T00:00:31.453Z,5.33
2022-11-29T00:05:35.982Z,5.50
2022-11-29T00:10:39.750Z,5.17
2022-11-29T00:15:44.548Z,6.10
2022-11-29T00:20:47.853Z,5.57
2022-11-29T00:25:51.308Z,5.37
2022-11-29T00:30:55.973Z,5.93
2022-11-29T00:36:02.604Z,5.67
2022-11-29T00:41:06.536Z,5.93
2022-11-29T00:46:11.919Z,5.73
2022-11-29T00:51:15.326Z,5.97
2022-11-29T00:56:18.916Z,5.77
2022-11-29T01:01:23.874Z,5.57
2022-11-29T01:06:27.180Z,5.50
2022-11-29T01:11:30.834Z,6.57
2022-11-29T01:16:36.998Z,5.40
2022-11-29T01:21:41.303Z,5.17
2022-11-29T01:26:44.696Z,5.23
2022-11-29T01:31:49.501Z,5.37
2022-11-29T01:36:52.814Z,5.87
2022-11-29T01:41:56.112Z,4.47
2022-11-29T01:47:00.836Z,4.67
2022-11-29T01:52:07.929Z,4.53
2022-11-29T01:57:12.320Z,4.87
2022-11-29T02:02:23.261Z,4.77
2022-11-29T02:07:26.674Z,4.90
2022-11-29T02:12:43.266Z,4.87
2022-11-29T02:18:02.508Z,4.53
2022-11-29T02:23:23.111Z,5.43
2022-11-29T02:29:08.592Z,5.17
2022-11-29T02:34:35.529Z,4.40
2022-11-29T02:40:01.963Z,5.03
2022-11-29T02:45:12.902Z,4.27
2022-11-29T02:50:34.631Z,5.17
2022-11-29T02:55:45.528Z,5.43
2022-11-29T03:01:05.514Z,5.13
2022-11-29T03:06:21.669Z,4.97
2022-11-29T03:11:31.755Z,5.57
2022-11-29T03:16:44.031Z,5.30
2022-11-29T03:21:55.765Z,4.83
2022-11-29T03:27:03.197Z,4.93
2022-11-29T03:32:13.713Z,4.47
2022-11-29T03:37:21.546Z,4.57
2022-11-29T03:42:28.862Z,4.17
2022-11-29T03:47:37.446Z,5.17
2022-11-29T03:52:50.722Z,5.00
2022-11-29T03:58:06.831Z,4.50
2022-11-29T04:03:40.280Z,5.03
2022-11-29T04:09:06.395Z,5.00
2022-11-29T04:14:32.958Z,4.07
2022-11-29T04:20:06.649Z,4.63
2022-11-29T04:25:43.802Z,4.40
2022-11-29T04:31:01.865Z,5.30
2022-11-29T04:36:39.654Z,4.83
2022-11-29T04:42:06.232Z,4.53
2022-11-29T04:47:32.795Z,4.73
2022-11-29T04:52:50.646Z,4.70
2022-11-29T04:58:01.557Z,5.30
2022-11-29T05:03:12.111Z,5.23
2022-11-29T05:08:28.869Z,5.40
2022-11-29T05:13:42.611Z,6.20
2022-11-29T05:19:08.854Z,5.83
2022-11-29T05:24:26.376Z,5.67
2022-11-29T05:29:36.432Z,6.30
2022-11-29T05:35:23.391Z,6.03
2022-11-29T05:40:45.455Z,5.70
2022-11-29T05:45:54.680Z,5.40
2022-11-29T05:51:09.147Z,5.67
2022-11-29T05:56:19.393Z,5.97
2022-11-29T06:01:26.052Z,6.33
2022-11-29T06:06:39.767Z,5.60
2022-11-29T06:11:47.124Z,6.20
2022-11-29T06:17:19.620Z,6.03
2022-11-29T06:22:54.839Z,6.23
2022-11-29T06:28:23.470Z,6.60
2022-11-29T06:33:32.440Z,5.67
2022-11-29T06:38:37.483Z,5.33
2022-11-29T06:43:41.418Z,5.07
2022-11-29T06:48:50.898Z,4.57
2022-11-29T06:54:04.076Z,6.03
2022-11-29T06:59:14.251Z,5.33
2022-11-29T07:04:33.847Z,5.67
2022-11-29T07:09:38.915Z,6.50
2022-11-29T07:14:42.807Z,6.23
2022-11-29T07:19:56.065Z,4.93
2022-11-29T07:25:07.855Z,6.07
2022-11-29T07:30:16.321Z,6.63
2022-11-29T07:35:25.932Z,6.90
2022-11-29T07:40:37.976Z,6.43
2022-11-29T07:45:41.814Z,5.67
2022-11-29T07:50:45.955Z,5.87
2022-11-29T07:55:51.042Z,5.43
2022-11-29T08:00:54.427Z,5.87
2022-11-29T08:05:57.900Z,6.13
2022-11-29T08:11:02.848Z,5.70
2022-11-29T08:16:06.598Z,6.17
2022-11-29T08:21:10.111Z,5.23
2022-11-29T08:26:15.760Z,6.40
2022-11-29T08:31:19.607Z,6.37
2022-11-29T08:36:23.198Z,6.13
2022-11-29T08:41:28.114Z,5.87
2022-11-29T08:46:45.215Z,6.17
2022-11-29T08:51:48.739Z,5.97
2022-11-29T08:57:31.370Z,5.57
2022-11-29T09:02:16.953Z,5.77
2022-11-29T09:07:20.569Z,5.60
2022-11-29T09:12:25.349Z,4.83
2022-11-29T09:17:28.764Z,5.57
2022-11-29T09:22:32.722Z,5.73
2022-11-29T09:27:37.363Z,5.17
2022-11-29T09:32:40.749Z,5.20
2022-11-29T09:37:44.592Z,5.13
2022-11-29T09:42:57.037Z,4.60
2022-11-29T09:48:40.615Z,4.97
2022-11-29T09:53:59.156Z,4.77
2022-11-29T09:59:10.175Z,5.13
2022-11-29T10:04:16.890Z,4.77
2022-11-29T10:09:29.549Z,5.17
2022-11-29T10:14:44.815Z,5.33
2022-11-29T10:19:52.013Z,4.97
2022-11-29T10:25:00.430Z,4.93
2022-11-29T10:30:06.579Z,5.77
2022-11-29T10:35:14.999Z,5.37
2022-11-29T10:40:22.359Z,4.47
2022-11-29T10:45:34.033Z,4.73
2022-11-29T10:50:38.595Z,5.30
2022-11-29T10:55:48.058Z,5.07
2022-11-29T11:00:58.203Z,4.80
2022-11-29T11:06:07.659Z,4.87
2022-11-29T11:11:11.839Z,4.57
2022-11-29T11:16:20.243Z,4.23
2022-11-29T11:21:27.087Z,4.57
2022-11-29T11:26:43.709Z,4.43
2022-11-29T11:31:55.179Z,4.60
2022-11-29T11:37:32.641Z,5.27
2022-11-29T11:42:40.763Z,5.90
2022-11-29T11:47:47.714Z,4.53
2022-11-29T11:52:54.080Z,5.20
2022-11-29T11:58:10.717Z,4.40
2022-11-29T12:03:35.910Z,5.27
2022-11-29T12:08:41.208Z,6.03
2022-11-29T12:13:50.447Z,4.37
2022-11-29T12:19:01.516Z,4.93
2022-11-29T12:24:12.139Z,5.03
2022-11-29T12:29:18.519Z,4.60
2022-11-29T12:34:41.283Z,5.30
2022-11-29T12:39:57.723Z,4.73
2022-11-29T12:45:13.683Z,5.93
2022-11-29T12:50:33.457Z,4.60
2022-11-29T12:55:46.631Z,4.67
2022-11-29T13:01:00.816Z,5.10
2022-11-29T13:06:14.083Z,4.77
2022-11-29T13:11:24.243Z,4.70
2022-11-29T13:16:36.256Z,4.73
2022-11-29T13:21:47.309Z,4.27
2022-11-29T13:26:52.066Z,5.20
2022-11-29T13:31:55.569Z,4.43
2022-11-29T13:37:07.141Z,4.77
2022-11-29T13:42:19.546Z,3.87
2022-11-29T13:47:23.487Z,4.77
2022-11-29T13:52:41.602Z,4.03
2022-11-29T13:58:14.948Z,4.17
2022-11-29T14:03:33.686Z,3.97
2022-11-29T14:09:17.263Z,4.47
2022-11-29T14:14:08.613Z,4.77
2022-11-29T14:19:26.638Z,4.57
2022-11-29T14:24:43.187Z,4.97
2022-11-29T14:29:56.544Z,4.53
2022-11-29T14:35:05.656Z,4.17
2022-11-29T14:40:28.496Z,4.53
2022-11-29T14:45:34.896Z,4.97
2022-11-29T14:50:40.578Z,5.20
2022-11-29T14:55:45.567Z,5.83
2022-11-29T15:01:08.076Z,5.87
2022-11-29T15:06:19.183Z,4.90
2022-11-29T15:11:33.915Z,5.80
2022-11-29T15:16:53.059Z,5.47
2022-11-29T15:22:07.369Z,5.13
2022-11-29T15:27:14.573Z,4.90
2022-11-29T15:32:23.549Z,5.10
2022-11-29T15:37:42.815Z,5.13
2022-11-29T15:42:50.876Z,5.30
2022-11-29T15:47:54.210Z,5.50
2022-11-29T15:53:01.465Z,5.20
2022-11-29T15:58:09.000Z,6.10
2022-11-29T16:03:21.533Z,5.67
2022-11-29T16:08:28.737Z,5.57
2022-11-29T16:13:39.490Z,5.00
2022-11-29T16:18:44.776Z,5.73
2022-11-29T16:23:48.404Z,5.03
2022-11-29T16:28:56.449Z,5.57
2022-11-29T16:34:08.642Z,6.00
2022-11-29T16:39:23.159Z,5.40
2022-11-29T16:45:24.288Z,6.87
2022-11-29T16:50:30.118Z,5.23
2022-11-29T16:55:33.956Z,5.90
2022-11-29T17:00:40.334Z,6.43
2022-11-29T17:05:47.325Z,5.77
2022-11-29T17:10:53.872Z,5.80
2022-11-29T17:15:59.261Z,6.37
2022-11-29T17:21:03.281Z,6.70
2022-11-29T17:26:07.887Z,6.57
2022-11-29T17:31:14.037Z,5.77
2022-11-29T17:36:19.729Z,6.30
2022-11-29T17:41:26.086Z,6.83
2022-11-29T17:46:35.394Z,5.93
2022-11-29T17:51:56.978Z,6.03
2022-11-29T17:57:03.654Z,6.67
2022-11-29T18:02:13.817Z,6.90
2022-11-29T18:07:18.762Z,6.60
2022-11-29T18:12:22.791Z,6.13
2022-11-29T18:17:30.051Z,6.37
2022-11-29T18:22:34.782Z,5.57
2022-11-29T18:27:38.976Z,6.50
2022-11-29T18:32:46.766Z,6.80
2022-11-29T18:38:14.863Z,6.90
2022-11-29T18:43:21.689Z,5.53
2022-11-29T18:48:27.702Z,6.47
2022-11-29T18:53:33.171Z,6.30
2022-11-29T18:58:41.763Z,6.13
2022-11-29T19:03:51.839Z,6.27
2022-11-29T19:08:59.872Z,6.50
2022-11-29T19:14:08.476Z,5.90
2022-11-29T19:19:21.893Z,6.80
2022-11-29T19:24:26.831Z,6.10
2022-11-29T19:29:36.711Z,6.10
2022-11-29T19:34:46.640Z,5.83
2022-11-29T19:39:55.515Z,6.30
2022-11-29T19:45:16.418Z,5.73
2022-11-29T19:50:23.762Z,5.83
2022-11-29T19:55:30.809Z,5.27
2022-11-29T20:00:37.172Z,6.47
2022-11-29T20:05:43.068Z,6.43
2022-11-29T20:10:47.984Z,6.10
2022-11-29T20:15:52.405Z,6.07
2022-11-29T20:21:03.871Z,6.50
2022-11-29T20:26:15.103Z,5.47
2022-11-29T20:31:23.155Z,6.20
2022-11-29T20:36:44.464Z,5.20
2022-11-29T20:42:03.396Z,6.00
2022-11-29T20:47:16.845Z,5.50
2022-11-29T20:52:36.900Z,6.27
2022-11-29T20:57:42.048Z,6.43
2022-11-29T21:02:47.772Z,6.90
2022-11-29T21:07:53.007Z,6.17
2022-11-29T21:12:58.503Z,5.87
2022-11-29T21:18:03.183Z,6.33
2022-11-29T21:23:15.246Z,6.50
2022-11-29T21:28:19.506Z,6.60
2022-11-29T21:33:23.682Z,6.33
2022-11-29T21:38:30.091Z,6.23
2022-11-29T21:44:04.415Z,6.87
2022-11-29T21:48:57.126Z,7.23
2022-11-29T21:54:02.685Z,7.47
2022-11-29T21:59:06.383Z,7.70
2022-11-29T22:04:09.902Z,7.93
2022-11-29T22:09:14.783Z,7.13
2022-11-29T22:14:19.241Z,7.70
2022-11-29T22:19:24.589Z,7.87
2022-11-29T22:24:31.952Z,7.57
2022-11-29T22:29:35.374Z,7.60
2022-11-29T22:34:38.693Z,8.10
2022-11-29T22:39:43.818Z,8.00
2022-11-29T22:44:47.414Z,7.20
2022-11-29T22:49:50.990Z,7.33
2022-11-29T22:54:59.913Z,7.47
2022-11-29T23:00:08.263Z,7.67
2022-11-29T23:05:11.673Z,7.87
2022-11-29T23:10:16.768Z,7.37
2022-11-29T23:15:20.108Z,7.07
2022-11-29T23:20:23.507Z,7.57
2022-11-29T23:25:28.245Z,7.57
2022-11-29T23:30:31.559Z,7.87
2022-11-29T23:35:34.925Z,7.63
2022-11-29T23:40:39.696Z,7.57
2022-11-29T23:45:43.821Z,7.10
2022-11-29T23:50:47.719Z,8.20
2022-11-29T23:55:59.535Z,8.00
